Solicitamos su permiso para obtener datos estadísticos de su navegación en esta web, en cumplimiento del Real Decreto-ley 13/2012. Si continúa navegando consideramos que acepta el uso de cookies. OK | Más información

MAPA DE AEROPUERTO

INFORMACIÓN METAR y TAF

METAR FOR LEGR
ADDS - METARS form results

(2127 UTC 24 February 2018)
Data provider http://aviationweather.gov/adds/metars/
 
METAR text: LEGR 242100Z 09001KT 9999 BKN050 08/03 Q1009
Conditions at: LEGR (GRANADA AIRPORT , ES) observed 2100 UTC 24 February 2018
Temperature: 8.0°C (46°F)
Dewpoint: 3.0°C (37°F) [RH = 71%]
Pressure (altimeter): 29.79 inches Hg (1009.0 mb)
Winds: from the E (90 degrees) at 1 MPH (1 knots; 0.5 m/s)
Visibility: 6 or more miles (10+ km)
Ceiling: 5000 feet AGL
Clouds: broken clouds at 5000 feet AGL
Weather: no significant weather observed at this time

METAR text: LEGR 242030Z 00000KT 9999 SCT050 08/03 Q1009
Conditions at: LEGR (GRANADA AIRPORT , ES) observed 2030 UTC 24 February 2018
Temperature: 8.0°C (46°F)
Dewpoint: 3.0°C (37°F) [RH = 71%]
Pressure (altimeter): 29.79 inches Hg (1009.0 mb)
Winds: calm
Visibility: 6 or more miles (10+ km)
Ceiling: at least 12,000 feet AGL
Clouds: scattered clouds at 5000 feet AGL
Weather: no significant weather observed at this time

Forecast for: LEGR (GRANADA AIRPORT , ES)
Text: TAF LEGR 242000Z 2421/2521 VRB03KT 9999 FEW030 SCT045 TX15/2515Z TN01/2507Z
Forecast period: 2100 UTC 24 February 2018 to 2100 UTC 25 February 2018
Forecast type: FROM: standard forecast or significant change
Winds: variable direction winds at 3 MPH (3 knots; 1.6 m/s)
Visibility: 6 or more miles (10+ km)
Clouds: few clouds at 3000 feet AGL
scattered clouds at 4500 feet AGL
Weather: no significant weather forecast for this period